Latest Weather Observations for Warra

IDT60801

Issued at 3:31 am EST Thursday 28 May 2015 (issued every 30 minutes, with the page automatically refreshed every 10 minutes)

About weather observations | Map of weather stations | Latest weather observations for TAS | Other Formats
Station Details ID: 097024 Name: WARRA Lat: -43.06 Lon: 146.70 Height: 495.0 m
Data from the previous 72 hours. | See also: Recent months at Warra
Date/Time
EST
Temp
°C
App
Temp
°C
Dew
Point
Rel
Hum
%
Delta-T
°C
Wind Press
QNH
hPa
Press
MSL
hPa
Rain
since 9 am
mm
Dir
 
Spd
km/h
Gust
km/h
Spd
kts
Gust
kts
28/03:30am 8.9 5.2 6.2 83 1.3 NNW 15 24 8 13 - - 0.6
28/03:00am 9.0 5.6 5.9 81 1.5 NNW 13 30 7 16 - - 0.6
28/02:30am 9.4 5.9 5.6 77 1.8 NNW 13 24 7 13 - - 0.6
28/02:00am 9.6 6.0 5.2 74 2.0 NW 13 41 7 22 - - 0.6
28/01:30am 9.1 6.3 5.1 76 1.8 NNE 9 26 5 14 - - 0.6
28/01:00am 9.0 6.6 5.2 77 1.8 ESE 7 15 4 8 - - 0.6
28/12:30am 9.4 5.8 5.0 74 2.0 W 13 28 7 15 - - 0.6
28/12:00am 9.1 5.5 5.1 76 1.8 NNW 13 28 7 15 - - 0.6
 
Date/Time
EST
Temp
°C
App
Temp
°C
Dew
Point
Rel
Hum
%
Delta-T
°C
Wind Press
QNH
hPa
Press
MSL
hPa
Rain
since 9 am
mm
Dir
 
Spd
km/h
Gust
km/h
Spd
kts
Gust
kts
27/11:30pm 9.4 6.0 5.8 78 1.7 NW 13 30 7 16 - - 0.6
27/11:00pm 9.7 6.0 6.2 79 1.7 NW 15 35 8 19 - - 0.6
27/10:30pm 9.7 6.8 8.1 90 0.8 WNW 13 39 7 21 - - 0.6
27/10:00pm 9.4 7.4 8.6 95 0.4 NW 9 19 5 10 - - 0.4
27/09:30pm 9.8 8.0 7.9 88 0.9 WSW 7 17 4 9 - - 0.2
27/09:00pm 10.2 8.3 6.9 80 1.6 NE 6 7 3 4 - - 0.0
27/08:30pm 10.5 8.6 6.6 77 1.9 NE 6 11 3 6 - - 0.0
27/08:00pm 10.6 7.4 6.7 77 1.9 N 13 20 7 11 - - 0.0
27/07:30pm 10.6 7.4 6.9 78 1.8 NNW 13 24 7 13 - - 0.0
27/07:00pm 9.6 6.4 6.9 83 1.3 NNW 13 20 7 11 - - 0.0
27/06:30pm 10.1 7.0 7.2 82 1.4 NNW 13 22 7 12 - - 0.0
27/06:00pm 10.0 6.5 7.3 83 1.3 NNW 15 20 8 11 - - 0.0
27/05:30pm 9.9 6.4 7.3 84 1.3 NNW 15 20 8 11 - - 0.0
27/05:00pm 10.1 6.7 7.7 85 1.2 NNW 15 20 8 11 - - 0.0
27/04:30pm 9.4 7.2 7.8 90 0.8 NNW 9 13 5 7 - - 0.0
27/04:00pm 10.0 7.8 7.9 87 1.0 NNW 9 13 5 7 - - 0.0
27/03:30pm 10.2 8.0 7.8 85 1.2 NNW 9 15 5 8 - - 0.0
27/03:00pm 10.6 8.0 7.8 83 1.4 NW 11 19 6 10 - - 0.0
27/02:30pm 10.8 8.6 8.0 83 1.4 NNW 9 17 5 9 - - 0.0
27/02:00pm 10.1 7.3 7.0 81 1.5 NNW 11 22 6 12 - - 0.0
27/01:30pm 10.3 8.5 7.0 80 1.6 NE 6 13 3 7 - - 0.0
27/01:00pm 10.6 8.1 6.7 77 1.9 N 9 15 5 8 - - 0.0
27/12:30pm 11.4 8.2 6.7 73 2.3 NNW 13 24 7 13 - - 0.0
27/12:00pm 10.8 6.4 6.4 74 2.1 NNW 19 33 10 18 - - 0.0
27/11:30am 10.2 6.2 6.7 79 1.7 NW 17 26 9 14 - - 0.0
27/11:00am 9.3 5.6 6.2 81 1.5 NNW 15 28 8 15 - - 0.0
27/10:30am 9.2 6.3 6.3 82 1.4 N 11 17 6 9 - - 0.0
27/10:00am 8.4 5.6 6.9 90 0.7 NW 11 19 6 10 - - 0.0
27/09:30am 7.3 4.8 6.7 96 0.3 NNW 9 11 5 6 - - 0.0
27/09:00am 6.8 4.3 6.7 99 0.0 NNW 9 11 5 6 - - 0.0
27/08:30am 5.9 2.9 5.9 100 0.0 NW 11 13 6 7 - - 0.0
27/08:00am 5.1 2.3 5.1 100 0.0 NNW 9 11 5 6 - - 0.0
27/07:30am 5.0 2.2 5.0 100 0.0 NNW 9 13 5 7 - - 0.0
27/07:00am 4.7 1.8 4.7 100 0.0 N 9 15 5 8 - - 0.0
27/06:30am 4.8 2.3 4.8 100 0.0 N 7 13 4 7 - - 0.0
27/06:00am 4.4 1.5 4.4 100 0.0 N 9 13 5 7 - - 0.0
27/05:30am 3.6 1.4 3.6 100 0.0 NNW 4 7 2 4 - - 0.0
27/05:00am 3.9 1.4 3.9 100 0.0 N 6 9 3 5 - - 0.0
27/04:30am 3.7 0.6 3.7 100 0.0 N 9 13 5 7 - - 0.0
27/04:00am 3.7 0.6 3.7 100 0.0 N 9 11 5 6 - - 0.0
27/03:30am 4.0 1.5 4.0 100 0.0 N 6 7 3 4 - - 0.0
27/03:00am 2.5 0.9 2.5 100 0.0 CALM 0 0 0 0 - - 0.0
27/02:30am 3.2 1.7 3.2 100 0.0 CALM 0 4 0 2 - - 0.0
27/02:00am 2.9 1.0 2.9 100 0.0 WSW 2 6 1 3 - - 0.0
27/01:30am 3.4 0.6 3.4 100 0.0 N 7 7 4 4 - - 0.0
27/01:00am 3.5 0.8 3.5 100 0.0 N 7 7 4 4 - - 0.0
27/12:30am 3.6 0.9 3.6 100 0.0 N 7 7 4 4 - - 0.0
27/12:00am 2.7 1.1 2.7 100 0.0 CALM 0 0 0 0 - - 0.0
 
Date/Time
EST
Temp
°C
App
Temp
°C
Dew
Point
Rel
Hum
%
Delta-T
°C
Wind Press
QNH
hPa
Press
MSL
hPa
Rain
since 9 am
mm
Dir
 
Spd
km/h
Gust
km/h
Spd
kts
Gust
kts
26/11:30pm 3.0 1.5 3.0 100 0.0 CALM 0 0 0 0 - - 0.0
26/11:00pm 3.1 0.9 3.1 100 0.0 N 4 6 2 3 - - 0.0
26/10:30pm 3.6 1.1 3.6 100 0.0 N 6 7 3 4 - - 0.0
26/10:00pm 4.1 1.7 4.1 100 0.0 N 6 7 3 4 - - 0.0
26/09:30pm 3.8 1.1 3.7 99 0.0 N 7 7 4 4 - - 0.0
26/09:00pm 4.0 1.5 3.9 99 0.0 NW 6 7 3 4 - - 0.0
26/08:30pm 3.7 0.6 3.6 99 0.0 W 9 11 5 6 - - 0.0
26/08:00pm 4.1 1.4 3.8 98 0.1 WNW 7 11 4 6 - - 0.0
26/07:30pm 4.5 1.9 4.4 99 0.0 WNW 7 9 4 5 - - 0.0
26/07:00pm 4.6 1.7 4.5 99 0.0 WNW 9 15 5 8 - - 0.0
26/06:30pm 4.2 1.2 3.9 98 0.1 WNW 9 11 5 6 - - 0.0
26/06:00pm 4.6 1.6 3.9 95 0.3 WNW 9 11 5 6 - - 0.0
26/05:30pm 5.3 2.2 3.8 90 0.7 WNW 9 9 5 5 - - 0.0
26/05:00pm 6.2 3.5 3.9 85 1.0 WNW 7 9 4 5 - - 0.0
26/04:30pm 8.0 4.7 4.6 79 1.5 W 11 20 6 11 - - 0.0
26/04:00pm 9.1 6.2 4.7 74 2.0 W 9 15 5 8 - - 0.0
26/03:30pm 9.8 7.4 5.2 73 2.1 W 7 13 4 7 - - 0.0
26/03:00pm 10.8 8.0 5.3 69 2.6 WNW 9 17 5 9 - - 0.0
26/02:30pm 10.5 7.8 5.7 72 2.3 W 9 19 5 10 - - 0.0
26/02:00pm 11.7 8.7 6.0 68 2.7 WNW 11 19 6 10 - - 0.0
26/01:30pm 11.2 8.2 5.9 70 2.5 W 11 24 6 13 - - 0.0
26/01:00pm 10.8 8.1 5.8 71 2.4 W 9 15 5 8 - - 0.0
26/12:30pm 10.9 7.2 6.5 74 2.1 W 15 26 8 14 - - 0.0
26/12:00pm 10.6 7.0 6.9 78 1.8 W 15 24 8 13 - - 0.0
26/11:30am 9.9 6.3 6.8 81 1.5 W 15 28 8 15 - - 0.0
26/11:00am 9.7 6.0 6.4 80 1.6 WNW 15 26 8 14 - - 0.0
26/10:30am 9.2 6.2 5.9 80 1.6 WNW 11 19 6 10 - - 0.0
26/10:00am 9.5 6.5 5.9 78 1.7 NW 11 17 6 9 - - 0.0
26/09:30am 9.8 6.9 6.7 81 1.5 WNW 11 19 6 10 - - 0.0
26/09:00am 9.2 6.9 7.3 88 0.9 W 9 15 5 8 - - 2.0
26/08:30am 8.4 5.8 7.6 95 0.4 W 11 20 6 11 - - 2.0
26/08:00am 8.0 5.4 7.9 99 0.0 W 11 22 6 12 - - 2.0
26/07:30am 8.2 5.7 8.1 99 0.0 W 11 24 6 13 - - 2.0
26/07:00am 8.3 5.8 8.2 99 0.0 W 11 19 6 10 - - 1.8
26/06:30am 8.2 5.7 8.1 99 0.0 WNW 11 19 6 10 - - 1.8
26/06:00am 8.1 5.2 8.0 99 0.0 W 13 19 7 10 - - 1.8
26/05:30am 7.9 7.4 7.8 99 0.0 CALM 0 11 0 6 - - 1.8
26/05:00am 8.3 6.9 7.4 94 0.4 W 4 9 2 5 - - 1.6
26/04:30am 8.6 6.6 7.1 90 0.7 NW 7 13 4 7 - - 1.4
26/04:00am 8.5 6.1 6.8 89 0.8 WNW 9 15 5 8 - - 1.4
26/03:30am 8.8 6.6 6.1 83 1.3 WNW 7 22 4 12 - - 1.4
26/03:00am 8.8 5.1 6.4 85 1.1 W 15 28 8 15 - - 1.4
26/02:30am 8.4 4.4 6.5 88 0.9 W 17 30 9 16 - - 1.4
26/02:00am 8.8 5.5 6.6 86 1.0 W 13 28 7 15 - - 1.2
26/01:30am 9.0 4.4 5.7 80 1.5 W 19 35 10 19 - - 1.0
26/01:00am 9.1 4.5 5.8 80 1.5 W 19 35 10 19 - - 1.0
26/12:30am 9.1 5.0 6.4 83 1.3 W 17 32 9 17 - - 1.0
26/12:00am 9.0 4.9 6.4 84 1.2 W 17 35 9 19 - - 1.0
 
Date/Time
EST
Temp
°C
App
Temp
°C
Dew
Point
Rel
Hum
%
Delta-T
°C
Wind Press
QNH
hPa
Press
MSL
hPa
Rain
since 9 am
mm
Dir
 
Spd
km/h
Gust
km/h
Spd
kts
Gust
kts
25/11:30pm 9.1 4.3 7.4 89 0.8 W 22 39 12 21 - - 1.0
25/11:00pm 9.0 4.6 7.6 91 0.7 W 20 37 11 20 - - 1.0
25/10:30pm 9.0 5.2 7.5 90 0.7 W 17 33 9 18 - - 0.8
25/10:00pm 8.8 4.9 7.3 90 0.7 WNW 17 32 9 17 - - 0.8
25/09:30pm 8.9 5.0 7.0 88 0.9 W 17 33 9 18 - - 0.6
25/09:00pm 8.8 4.9 7.3 90 0.7 W 17 30 9 16 - - 0.6
25/08:30pm 8.5 4.6 7.0 90 0.7 WNW 17 35 9 19 - - 0.6
25/08:00pm 9.8 5.3 6.0 77 1.8 WNW 19 39 10 21 - - 0.0
25/07:30pm 9.6 6.5 5.6 76 1.9 NW 11 26 6 14 - - 0.0
25/07:00pm 9.5 5.3 5.7 77 1.8 WNW 17 32 9 17 - - 0.0
25/06:30pm 8.7 6.0 5.6 81 1.4 NW 9 15 5 8 - - 0.0
25/06:00pm 9.0 5.6 5.9 81 1.5 NW 13 30 7 16 - - 0.0
25/05:30pm 8.5 5.1 6.1 85 1.1 NNW 13 26 7 14 - - 0.0
25/05:00pm 8.4 4.7 6.2 86 1.0 NNW 15 22 8 12 - - 0.0
25/04:30pm 8.2 4.9 6.2 87 0.9 NW 13 19 7 10 - - 0.0
25/04:00pm 8.5 4.7 5.8 83 1.3 NW 15 28 8 15 - - 0.0
25/03:30pm 8.4 5.0 5.9 84 1.2 NNW 13 19 7 10 - - 0.0
25/03:00pm 8.9 5.5 5.8 81 1.5 NW 13 33 7 18 - - 0.0
25/02:30pm 8.8 5.4 5.9 82 1.4 NNW 13 24 7 13 - - 0.0
25/02:00pm 9.1 6.1 5.8 80 1.5 NNW 11 15 6 8 - - 0.0
25/01:30pm 9.5 5.9 5.1 74 2.0 WNW 13 22 7 12 - - 0.0
25/01:00pm 10.7 7.2 5.5 70 2.5 WNW 13 28 7 15 - - 0.0
25/12:30pm 9.5 6.3 5.3 75 2.0 NW 11 26 6 14 - - 0.0
25/12:00pm 8.2 6.3 6.5 89 0.8 ESE 6 7 3 4 - - 0.0
25/11:30am 8.1 5.9 6.4 89 0.8 ENE 7 11 4 6 - - 0.0
25/11:00am 8.1 6.5 6.4 89 0.8 ENE 4 7 2 4 - - 0.0
25/10:30am 8.1 5.8 5.9 86 1.0 ESE 7 11 4 6 - - 0.0
25/10:00am 8.3 6.4 6.8 90 0.7 ESE 6 9 3 5 - - 0.0
25/09:30am 7.1 5.7 7.1 100 0.0 NNE 4 7 2 4 - - 0.0
25/09:00am 5.5 3.3 5.5 100 0.0 SW 6 11 3 6 - - 0.0
25/08:30am 4.9 3.0 4.9 100 0.0 SW 4 7 2 4 - - 0.0
25/08:00am 4.6 3.4 4.6 100 0.0 CALM 0 0 0 0 - - 0.0
25/07:30am 4.7 3.5 4.7 100 0.0 CALM 0 7 0 4 - - 0.0
25/07:00am 4.7 2.8 4.7 100 0.0 SW 4 7 2 4 - - 0.0
25/06:30am 4.7 3.5 4.7 100 0.0 CALM 0 0 0 0 - - 0.0
25/06:00am 4.7 3.1 4.7 100 0.0 SE 2 9 1 5 - - 0.0
25/05:30am 4.4 3.2 4.4 100 0.0 CALM 0 0 0 0 - - 0.0
25/05:00am 4.2 2.9 4.2 100 0.0 CALM 0 0 0 0 - - 0.0
25/04:30am 4.3 2.3 4.3 100 0.0 SW 4 7 2 4 - - 0.0
25/04:00am 4.4 2.0 4.4 100 0.0 SSE 6 9 3 5 - - 0.0

Other Formats:

Comma delimited format used in spreadsheet applications
http://www.bom.gov.au/fwo/IDT60801/IDT60801.95962.axf

JavaScript Object Notation format (JSON) in row-major order
http://www.bom.gov.au/fwo/IDT60801/IDT60801.95962.json